Terminal Aerodrome Forecast
Issued by NWS Corpus Christi, TX

Current Version | Previous Version | Text Only | Print | Product List | Glossary On
Versions: 1 2 3 4 5 6 7 8 9 10 11 12 13 14 15 16 17 18 19 20
000
FTUS44 KCRP 280142 AAB
TAFCRP
TAF AMD
KCRP 280142Z 2802/2824 12013KT P6SM OVC018
     FM280500 15011KT P6SM BKN012
      TEMPO 2809/2813 6SM BR
     FM281300 16016G22KT P6SM BKN025
     FM281800 16022G29KT P6SM OVC050=

USA.gov is the U.S. government's official web portal to all federal, state and local government web resources and services.